Emslake — V2FL4 — position and weather

sailwx.info

Track history (hours):
 
Tides and Currents Weather Stations Pressure Air Temp Water Temp Dewpoint Dewpoint Depression Visibility Wind Speed Wind Dir Waves Ship Positions

Emslake

Last reported at 2016-Feb-08 19:25 UTC. Time now 2016-Feb-10 12:59 UTC.
Position N 57°23' E 017°45'.

Length 100 m; draft 4 m.

Type: Cargo ship. MMSI: 305712000.

Date/timePositionNaut miles runAvg speedWind from/ knotsBaromVisibWave heightAir tempDewpointWater temp
2016-Feb-08 19:25N 57°23' E 017°45'910.8
2016-Feb-08 18:33N 57°14' E 017°38'11510.5
2016-Feb-08 07:33N 55°41' E 015°35'1111.0
2016-Feb-08 06:34N 55°35' E 015°18'1111.2
2016-Feb-08 05:34N 55°30' E 015°01'1111.3
2016-Feb-08 04:33N 55°24' E 014°44'1111.2
2016-Feb-08 03:33N 55°16' E 014°30'1111.5
2016-Feb-08 02:33N 55°08' E 014°17'1111.2
2016-Feb-08 01:34N 54°60' E 014°02'1211.9
2016-Feb-08 00:34N 54°55' E 013°43'1212.1
2016-Feb-07 23:33N 54°50' E 013°24'2110.8
2016-Feb-07 21:33N 54°41' E 012°50'1111.4
2016-Feb-07 20:34N 54°36' E 012°32'1111.2
2016-Feb-07 19:33N 54°30' E 012°16'1110.5
2016-Feb-07 18:33N 54°24' E 012°01'1111.2
2016-Feb-07 17:33N 54°19' E 011°44'1111.3
2016-Feb-07 16:33N 54°13' E 011°28'1111.3
2016-Feb-07 15:33N 54°07' E 011°12'  
2016-Feb-05 03:33N 54°06' E 011°09'9 9.2
2016-Feb-05 02:33N 54°12' E 011°21'9 9.4
2016-Feb-05 01:33N 54°17' E 011°35'9 9.2
2016-Feb-05 00:33N 54°22' E 011°49'9 9.0
2016-Feb-04 23:33N 54°26' E 012°02'8 8.1
2016-Feb-04 22:33N 54°32' E 012°12'9 8.7
2016-Feb-04 21:33N 54°39' E 012°20'9 9.0
2016-Feb-04 20:33N 54°44' E 012°34'33 9.5
2016-Feb-04 17:08N 54°56' E 013°26'6 9.9
2016-Feb-04 16:33N 54°58' E 013°35'10 9.6
2016-Feb-04 15:33N 55°02' E 013°51'9 9.3
2016-Feb-04 14:33N 55°06' E 014°06'9 9.4
2016-Feb-04 13:33N 55°13' E 014°16'9 9.5
2016-Feb-04 12:34N 55°20' E 014°27'10 9.7
2016-Feb-04 11:33N 55°27' E 014°39'10 9.7
2016-Feb-04 10:33N 55°32' E 014°54'9 9.2
2016-Feb-04 09:33N 55°37' E 015°08'9 8.8
2016-Feb-04 08:29N 55°41' E 015°22'102 9.2
2016-Feb-03 21:25N 56°59' E 017°20'8 9.5
2016-Feb-03 20:32N 57°07' E 017°26'10 9.8
2016-Feb-03 19:31N 57°16' E 017°33'1010.1
2016-Feb-03 18:32N 57°26' E 017°40'  
Track history (hours):
 
Tides and Currents Weather Stations Pressure Air Temp Water Temp Dewpoint Dewpoint Depression Visibility Wind Speed Wind Dir Waves Ship Positions

Emslake

Last reported at 2016-Feb-08 19:25 UTC. Time now 2016-Feb-10 12:59 UTC.
Position N 57°23' E 017°45'.

Length 100 m; draft 4 m.

Type: Cargo ship. MMSI: 305712000.

Date/timePositionNaut miles runAvg speedWind from/ knotsBaromVisibWave heightAir tempDewpointWater temp
2016-Feb-08 19:25N 57°23' E 017°45'910.8
2016-Feb-08 18:33N 57°14' E 017°38'11510.5
2016-Feb-08 07:33N 55°41' E 015°35'1111.0
2016-Feb-08 06:34N 55°35' E 015°18'1111.2
2016-Feb-08 05:34N 55°30' E 015°01'1111.3
2016-Feb-08 04:33N 55°24' E 014°44'1111.2
2016-Feb-08 03:33N 55°16' E 014°30'1111.5
2016-Feb-08 02:33N 55°08' E 014°17'1111.2
2016-Feb-08 01:34N 54°60' E 014°02'1211.9
2016-Feb-08 00:34N 54°55' E 013°43'1212.1
2016-Feb-07 23:33N 54°50' E 013°24'2110.8
2016-Feb-07 21:33N 54°41' E 012°50'1111.4
2016-Feb-07 20:34N 54°36' E 012°32'1111.2
2016-Feb-07 19:33N 54°30' E 012°16'1110.5
2016-Feb-07 18:33N 54°24' E 012°01'1111.2
2016-Feb-07 17:33N 54°19' E 011°44'1111.3
2016-Feb-07 16:33N 54°13' E 011°28'1111.3
2016-Feb-07 15:33N 54°07' E 011°12'  
2016-Feb-05 03:33N 54°06' E 011°09'9 9.2
2016-Feb-05 02:33N 54°12' E 011°21'9 9.4
2016-Feb-05 01:33N 54°17' E 011°35'9 9.2
2016-Feb-05 00:33N 54°22' E 011°49'9 9.0
2016-Feb-04 23:33N 54°26' E 012°02'8 8.1
2016-Feb-04 22:33N 54°32' E 012°12'9 8.7
2016-Feb-04 21:33N 54°39' E 012°20'9 9.0
2016-Feb-04 20:33N 54°44' E 012°34'33 9.5
2016-Feb-04 17:08N 54°56' E 013°26'6 9.9
2016-Feb-04 16:33N 54°58' E 013°35'10 9.6
2016-Feb-04 15:33N 55°02' E 013°51'9 9.3
2016-Feb-04 14:33N 55°06' E 014°06'9 9.4
2016-Feb-04 13:33N 55°13' E 014°16'9 9.5
2016-Feb-04 12:34N 55°20' E 014°27'10 9.7
2016-Feb-04 11:33N 55°27' E 014°39'10 9.7
2016-Feb-04 10:33N 55°32' E 014°54'9 9.2
2016-Feb-04 09:33N 55°37' E 015°08'9 8.8
2016-Feb-04 08:29N 55°41' E 015°22'102 9.2
2016-Feb-03 21:25N 56°59' E 017°20'8 9.5
2016-Feb-03 20:32N 57°07' E 017°26'10 9.8
2016-Feb-03 19:31N 57°16' E 017°33'1010.1
2016-Feb-03 18:32N 57°26' E 017°40'  

Dump ship's entire track history